createdAt,value
2022-11-20T00:02:02.041Z,99900.25
2022-11-20T00:04:28.740Z,99904.09
2022-11-20T00:06:57.117Z,99924.22
2022-11-20T00:09:23.972Z,99909.38
2022-11-20T00:11:50.699Z,99926.00
2022-11-20T00:14:17.482Z,99912.84
2022-11-20T00:16:44.157Z,99922.44
2022-11-20T00:19:10.930Z,99930.13
2022-11-20T00:21:37.675Z,99945.59
2022-11-20T00:24:06.667Z,99936.72
2022-11-20T00:26:33.365Z,99945.69
2022-11-20T00:29:01.633Z,99948.91
2022-11-20T00:31:29.198Z,99938.69
2022-11-20T00:33:56.365Z,99946.97
2022-11-20T00:36:24.598Z,99945.84
2022-11-20T00:38:53.107Z,99940.00
2022-11-20T00:41:21.688Z,99955.47
2022-11-20T00:43:48.589Z,99955.75
2022-11-20T00:46:17.717Z,99914.28
2022-11-20T00:48:45.128Z,99961.28
2022-11-20T00:51:13.550Z,99960.81
2022-11-20T00:53:40.187Z,99948.63
2022-11-20T00:56:10.429Z,99975.19
2022-11-20T00:58:39.933Z,99959.72
2022-11-20T01:01:08.459Z,99980.78
2022-11-20T01:03:36.739Z,99980.78
2022-11-20T01:06:04.710Z,99962.25
2022-11-20T01:08:32.162Z,99975.22
2022-11-20T01:11:02.138Z,99993.84
2022-11-20T01:13:29.657Z,99990.53
2022-11-20T01:16:03.225Z,99974.88
2022-11-20T01:18:29.712Z,99972.53
2022-11-20T01:20:56.175Z,99973.75
2022-11-20T01:23:22.631Z,99976.03
2022-11-20T01:25:49.132Z,99976.34
2022-11-20T01:28:15.599Z,99964.72
2022-11-20T01:30:42.070Z,99970.28
2022-11-20T01:33:09.974Z,99979.00
2022-11-20T01:35:36.450Z,99974.47
2022-11-20T01:38:02.938Z,99969.09
2022-11-20T01:40:29.415Z,99969.13
2022-11-20T01:43:12.991Z,99967.88
2022-11-20T01:45:51.329Z,99975.81
2022-11-20T01:48:21.885Z,99983.19
2022-11-20T01:50:49.156Z,99977.25
2022-11-20T01:53:17.930Z,99984.75
2022-11-20T01:55:46.784Z,99984.72
2022-11-20T01:58:13.715Z,99978.84
2022-11-20T02:00:41.147Z,99973.13
2022-11-20T02:03:10.728Z,99975.56
2022-11-20T02:05:42.757Z,99970.97
2022-11-20T02:08:09.302Z,99966.47
2022-11-20T02:10:35.996Z,99963.78
2022-11-20T02:13:02.644Z,99968.59
2022-11-20T02:15:30.529Z,99958.34
2022-11-20T02:17:57.247Z,99963.94
2022-11-20T02:20:23.782Z,99965.31
2022-11-20T02:22:55.386Z,99966.25
2022-11-20T02:25:25.564Z,99967.41
2022-11-20T02:27:52.004Z,99975.44
2022-11-20T02:30:18.552Z,99970.66
2022-11-20T02:32:45.189Z,99964.16
2022-11-20T02:35:26.545Z,99966.84
2022-11-20T02:37:54.854Z,99961.53
2022-11-20T02:40:21.386Z,99953.94
2022-11-20T02:42:52.613Z,99957.28
2022-11-20T02:45:19.137Z,99947.28
2022-11-20T02:47:45.566Z,99949.59
2022-11-20T02:50:12.004Z,99958.66
2022-11-20T02:52:38.418Z,99959.34
2022-11-20T02:55:05.325Z,99960.56
2022-11-20T02:57:31.769Z,99970.66
2022-11-20T02:59:59.647Z,99972.19
2022-11-20T03:02:26.093Z,99960.41
2022-11-20T03:04:52.555Z,99958.28
2022-11-20T03:07:19.066Z,99971.09
2022-11-20T03:09:45.490Z,99960.19
2022-11-20T03:12:11.943Z,99969.91
2022-11-20T03:14:38.597Z,99942.97
2022-11-20T03:17:06.613Z,99969.66
2022-11-20T03:19:38.277Z,99964.16
2022-11-20T03:22:04.653Z,99970.53
2022-11-20T03:24:31.155Z,99970.84
2022-11-20T03:26:57.629Z,99962.91
2022-11-20T03:29:24.223Z,99960.00
2022-11-20T03:31:50.670Z,99968.44
2022-11-20T03:34:18.480Z,99974.00
2022-11-20T03:36:45.812Z,99968.19
2022-11-20T03:39:12.527Z,99952.97
2022-11-20T03:41:40.274Z,99950.09
2022-11-20T03:44:07.500Z,99949.34
2022-11-20T03:46:34.160Z,99955.56
2022-11-20T03:49:00.650Z,99952.16
2022-11-20T03:51:29.549Z,99948.28
2022-11-20T03:53:58.173Z,99946.66
2022-11-20T03:56:26.110Z,99944.31
2022-11-20T03:58:52.884Z,99951.13
2022-11-20T04:01:20.101Z,99954.84
2022-11-20T04:03:46.659Z,99955.38
2022-11-20T04:06:14.816Z,99960.59
2022-11-20T04:08:43.193Z,99959.78
2022-11-20T04:11:10.408Z,99972.22
2022-11-20T04:13:37.034Z,99966.41
2022-11-20T04:16:03.568Z,99964.25
2022-11-20T04:18:30.043Z,99974.53
2022-11-20T04:20:57.377Z,99986.88
2022-11-20T04:23:28.528Z,99991.00
2022-11-20T04:26:01.214Z,100006.34
2022-11-20T04:28:27.663Z,100015.13
2022-11-20T04:30:54.129Z,100001.16
2022-11-20T04:33:20.573Z,99992.75
2022-11-20T04:35:48.717Z,99986.72
2022-11-20T04:38:15.195Z,99984.69
2022-11-20T04:40:41.795Z,99986.63
2022-11-20T04:43:09.730Z,99992.97
2022-11-20T04:45:36.210Z,99995.41
2022-11-20T04:48:02.719Z,99987.28
2022-11-20T04:50:29.264Z,99980.25
2022-11-20T04:52:55.802Z,99981.84
2022-11-20T04:55:22.327Z,99971.75
2022-11-20T04:57:50.723Z,99981.75
2022-11-20T05:00:18.790Z,99981.94
2022-11-20T05:02:45.401Z,99986.94
2022-11-20T05:05:11.852Z,99988.19
2022-11-20T05:07:38.357Z,99991.72
2022-11-20T05:10:05.224Z,99979.09
2022-11-20T05:12:32.139Z,99981.94
2022-11-20T05:14:58.608Z,99981.53
2022-11-20T05:17:26.559Z,99988.69
2022-11-20T05:19:53.353Z,99984.06
2022-11-20T05:22:19.838Z,99990.72
2022-11-20T05:24:46.290Z,99994.13
2022-11-20T05:27:12.763Z,100003.06
2022-11-20T05:29:39.229Z,100002.75
2022-11-20T05:32:05.804Z,100004.81
2022-11-20T05:34:33.758Z,100001.47
2022-11-20T05:37:00.194Z,100000.97
2022-11-20T05:39:26.749Z,99998.50
2022-11-20T05:41:53.266Z,100000.56
2022-11-20T05:44:19.718Z,99996.06
2022-11-20T05:46:46.160Z,100000.56
2022-11-20T05:49:12.586Z,100004.00
2022-11-20T05:51:40.490Z,100017.44
2022-11-20T05:54:06.978Z,100025.06
2022-11-20T05:56:33.398Z,100019.84
2022-11-20T05:58:59.878Z,100022.38
2022-11-20T06:01:26.630Z,100030.16
2022-11-20T06:03:53.662Z,100041.19
2022-11-20T06:06:20.502Z,100036.78
2022-11-20T06:08:48.564Z,100030.88
2022-11-20T06:11:15.715Z,100031.84
2022-11-20T06:13:42.918Z,100030.59
2022-11-20T06:16:09.920Z,100035.22
2022-11-20T06:18:36.578Z,100036.41
2022-11-20T06:21:03.789Z,100044.19
2022-11-20T06:23:30.720Z,100047.03
2022-11-20T06:25:58.568Z,100047.97
2022-11-20T06:28:24.998Z,100062.75
2022-11-20T06:30:51.466Z,100059.66
2022-11-20T06:33:17.943Z,100067.69
2022-11-20T06:35:44.369Z,100054.91
2022-11-20T06:38:10.797Z,100074.47
2022-11-20T06:40:37.191Z,100069.69
2022-11-20T06:43:05.030Z,100069.56
2022-11-20T06:45:31.456Z,100066.88
2022-11-20T06:47:58.185Z,100076.50
2022-11-20T06:50:24.617Z,100074.13
2022-11-20T06:52:51.097Z,100078.06
2022-11-20T06:55:17.626Z,100073.81
2022-11-20T06:57:44.082Z,100074.25
2022-11-20T07:00:12.736Z,100078.19
2022-11-20T07:02:39.110Z,100097.31
2022-11-20T07:05:05.737Z,100092.34
2022-11-20T07:07:32.241Z,100088.81
2022-11-20T07:09:58.685Z,100089.63
2022-11-20T07:12:25.111Z,100093.09
2022-11-20T07:14:51.759Z,100097.94
2022-11-20T07:17:19.655Z,100102.56
2022-11-20T07:19:46.152Z,100103.84
2022-11-20T07:22:12.662Z,100108.53
2022-11-20T07:24:44.635Z,100111.16
2022-11-20T07:27:12.397Z,100115.59
2022-11-20T07:29:38.778Z,100112.28
2022-11-20T07:32:05.200Z,100120.94
2022-11-20T07:34:33.063Z,100125.22
2022-11-20T07:36:59.500Z,100118.75
2022-11-20T07:39:25.967Z,100117.34
2022-11-20T07:41:52.440Z,100125.50
2022-11-20T07:44:18.854Z,100127.34
2022-11-20T07:46:45.347Z,100128.88
2022-11-20T07:49:11.787Z,100125.50
2022-11-20T07:51:39.585Z,100123.53
2022-11-20T07:54:06.104Z,100125.44
2022-11-20T07:56:32.578Z,100140.03
2022-11-20T07:58:59.086Z,100145.38
2022-11-20T08:01:25.652Z,100128.28
2022-11-20T08:03:52.253Z,100127.41
2022-11-20T08:06:18.781Z,100139.44
2022-11-20T08:08:46.638Z,100137.84
2022-11-20T08:11:13.176Z,100134.63
2022-11-20T08:13:39.669Z,100141.63
2022-11-20T08:16:06.300Z,100144.94
2022-11-20T08:18:33.216Z,100145.22
2022-11-20T08:21:02.673Z,100147.41
2022-11-20T08:23:29.181Z,100150.41
2022-11-20T08:25:57.150Z,100158.59
2022-11-20T08:28:23.567Z,100159.56
2022-11-20T08:30:50.562Z,100160.09
2022-11-20T08:33:16.997Z,100164.41
2022-11-20T08:35:43.511Z,100175.13
2022-11-20T08:38:10.276Z,100165.06
2022-11-20T08:40:36.698Z,100171.41
2022-11-20T08:43:04.598Z,100173.00
2022-11-20T08:45:34.218Z,100173.31
2022-11-20T08:48:01.632Z,100168.16
2022-11-20T08:50:28.100Z,100168.34
2022-11-20T08:52:55.650Z,100174.34
2022-11-20T08:55:29.410Z,100186.88
2022-11-20T08:57:55.826Z,100186.59
2022-11-20T09:00:23.974Z,100173.25
2022-11-20T09:02:52.438Z,100167.31
2022-11-20T09:05:18.954Z,100162.41
2022-11-20T09:08:00.052Z,100166.19
2022-11-20T09:10:26.487Z,100166.88
2022-11-20T09:12:53.122Z,100175.00
2022-11-20T09:15:19.665Z,100171.28
2022-11-20T09:17:52.526Z,100169.78
2022-11-20T09:20:18.998Z,100180.72
2022-11-20T09:22:45.430Z,100185.00
2022-11-20T09:25:11.960Z,100183.16
2022-11-20T09:27:38.403Z,100183.44
2022-11-20T09:30:05.324Z,100187.81
2022-11-20T09:35:36.107Z,100194.81
2022-11-20T09:38:05.866Z,100195.88
2022-11-20T09:40:48.000Z,100196.75
2022-11-20T09:43:16.646Z,100201.28
2022-11-20T09:46:06.080Z,100201.53
2022-11-20T09:48:50.423Z,100213.50
2022-11-20T09:51:26.432Z,100212.94
2022-11-20T09:53:58.595Z,100210.72
2022-11-20T09:56:26.600Z,100210.09
2022-11-20T10:01:56.598Z,100216.63
2022-11-20T10:04:23.536Z,100211.19
2022-11-20T10:10:00.774Z,100212.34
2022-11-20T10:12:34.825Z,100213.94
2022-11-20T10:15:07.362Z,100220.09
2022-11-20T10:17:47.979Z,100208.94
2022-11-20T10:20:18.580Z,100215.63
2022-11-20T10:22:54.710Z,100204.97
2022-11-20T10:25:25.967Z,100208.94
2022-11-20T10:28:00.382Z,100199.53
2022-11-20T10:30:27.219Z,100206.13
2022-11-20T10:32:58.516Z,100205.31
2022-11-20T10:35:27.410Z,100196.34
2022-11-20T10:37:57.332Z,100204.09
2022-11-20T10:40:28.437Z,100200.94
2022-11-20T10:42:56.586Z,100206.38
2022-11-20T10:45:32.038Z,100207.50
2022-11-20T10:48:08.470Z,100209.22
2022-11-20T10:50:36.134Z,100208.97
2022-11-20T10:53:08.119Z,100204.50
2022-11-20T10:55:41.274Z,100199.28
2022-11-20T10:58:11.308Z,100205.47
2022-11-20T11:00:37.909Z,100210.06
2022-11-20T11:03:15.363Z,100212.84
2022-11-20T11:05:45.380Z,100209.59
2022-11-20T11:08:18.085Z,100212.66
2022-11-20T11:10:49.414Z,100202.84
2022-11-20T11:13:20.450Z,100199.97
2022-11-20T11:15:47.288Z,100197.63
2022-11-20T11:18:23.898Z,100207.91
2022-11-20T11:20:51.200Z,100209.25
2022-11-20T11:23:27.524Z,100210.41
2022-11-20T11:26:01.539Z,100218.06
2022-11-20T11:28:28.564Z,100211.34
2022-11-20T11:30:55.324Z,100210.06
2022-11-20T11:33:23.060Z,100207.09
2022-11-20T11:35:51.699Z,100205.75
2022-11-20T11:38:21.498Z,100203.91
2022-11-20T11:40:47.975Z,100204.00
2022-11-20T11:43:20.645Z,100199.22
2022-11-20T11:45:57.021Z,100192.81
2022-11-20T11:48:23.462Z,100200.44
2022-11-20T11:50:50.149Z,100187.13
2022-11-20T11:53:18.788Z,100198.81
2022-11-20T11:55:46.950Z,100198.09
2022-11-20T11:58:23.507Z,100195.13
2022-11-20T12:00:55.504Z,100181.00
2022-11-20T12:03:25.725Z,100181.38
2022-11-20T12:05:56.328Z,100193.44
2022-11-20T12:08:26.344Z,100187.56
2022-11-20T12:10:57.244Z,100188.31
2022-11-20T12:13:33.549Z,100185.75
2022-11-20T12:16:01.643Z,100191.47
2022-11-20T12:18:28.286Z,100186.25
2022-11-20T12:21:02.121Z,100184.13
2022-11-20T12:23:31.205Z,100178.63
2022-11-20T12:26:01.995Z,100181.94
2022-11-20T12:28:34.736Z,100182.44
2022-11-20T12:31:16.017Z,100180.38
2022-11-20T12:34:03.231Z,100188.13
2022-11-20T12:36:36.091Z,100181.47
2022-11-20T12:39:13.068Z,100178.66
2022-11-20T12:41:45.022Z,100178.25
2022-11-20T12:44:22.857Z,100164.28
2022-11-20T12:46:54.095Z,100166.09
2022-11-20T12:49:31.244Z,100159.69
2022-11-20T12:52:15.342Z,100137.81
2022-11-20T12:54:50.619Z,100161.09
2022-11-20T12:57:19.427Z,100149.72
2022-11-20T13:00:01.939Z,100144.19
2022-11-20T13:02:31.247Z,100146.59
2022-11-20T13:05:05.694Z,100131.63
2022-11-20T13:07:33.906Z,100133.38
2022-11-20T13:10:01.512Z,100125.72
2022-11-20T13:12:32.813Z,100113.38
2022-11-20T13:15:09.821Z,100067.69
2022-11-20T13:17:42.980Z,100069.53
2022-11-20T13:20:16.818Z,100101.16
2022-11-20T13:22:46.380Z,100108.78
2022-11-20T13:25:23.612Z,100118.47
2022-11-20T13:27:51.308Z,100113.41
2022-11-20T13:30:21.278Z,100100.63
2022-11-20T13:32:53.334Z,100110.56
2022-11-20T13:35:29.121Z,100090.97
2022-11-20T13:38:05.021Z,100089.34
2022-11-20T13:40:31.906Z,100082.69
2022-11-20T13:43:16.501Z,100078.53
2022-11-20T13:45:56.115Z,100076.97
2022-11-20T13:48:23.102Z,100104.75
2022-11-20T13:50:59.821Z,100086.19
2022-11-20T13:53:39.819Z,100122.75
2022-11-20T13:56:15.888Z,100101.16
2022-11-20T13:58:53.345Z,100114.22
2022-11-20T14:01:24.841Z,100077.28
2022-11-20T14:04:08.321Z,100131.78
2022-11-20T14:06:42.128Z,100122.75
2022-11-20T14:09:12.441Z,100115.31
2022-11-20T14:11:47.811Z,100132.28
2022-11-20T14:14:17.403Z,100130.44
2022-11-20T14:16:51.390Z,100132.28
2022-11-20T14:19:30.656Z,100101.28
2022-11-20T14:22:09.809Z,100125.91
2022-11-20T14:24:36.465Z,100131.56
2022-11-20T14:27:04.764Z,100130.50
2022-11-20T14:29:37.281Z,100113.56
2022-11-20T14:32:10.070Z,100077.59
2022-11-20T14:34:42.630Z,100108.75
2022-11-20T14:37:17.108Z,100129.31
2022-11-20T14:39:50.349Z,100119.63
2022-11-20T14:42:20.911Z,100116.13
2022-11-20T14:44:53.663Z,100083.94
2022-11-20T14:47:24.613Z,100111.50
2022-11-20T14:49:56.739Z,100082.84
2022-11-20T14:52:25.632Z,100111.81
2022-11-20T14:54:54.128Z,100116.97
2022-11-20T14:57:24.298Z,100128.41
2022-11-20T15:00:04.283Z,100091.84
2022-11-20T15:02:42.223Z,100089.94
2022-11-20T15:05:12.332Z,100091.00
2022-11-20T15:07:41.725Z,100083.91
2022-11-20T15:10:10.806Z,100097.22
2022-11-20T15:12:41.566Z,100109.25
2022-11-20T15:15:14.889Z,100162.41
2022-11-20T15:17:55.231Z,100105.50
2022-11-20T15:20:26.856Z,100141.19
2022-11-20T15:22:58.941Z,100145.16
2022-11-20T15:25:25.881Z,100057.53
2022-11-20T15:27:57.057Z,100130.63
2022-11-20T15:30:25.564Z,100144.09
2022-11-20T15:32:53.661Z,100094.38
2022-11-20T15:35:20.367Z,100100.41
2022-11-20T15:37:47.601Z,100142.13
2022-11-20T15:40:14.643Z,100158.13
2022-11-20T15:42:51.153Z,100138.53
2022-11-20T15:45:20.196Z,100141.78
2022-11-20T15:48:12.686Z,100158.75
2022-11-20T15:50:47.488Z,100124.03
2022-11-20T15:53:23.688Z,100141.50
2022-11-20T15:55:55.398Z,100146.91
2022-11-20T15:58:41.783Z,100143.28
2022-11-20T16:01:11.648Z,100140.88
2022-11-20T16:03:46.665Z,100144.63
2022-11-20T16:06:13.596Z,100107.88
2022-11-20T16:08:40.363Z,100139.88
2022-11-20T16:11:07.152Z,100135.03
2022-11-20T16:13:58.453Z,100135.38
2022-11-20T16:16:29.259Z,100096.50
2022-11-20T16:19:15.484Z,100120.69
2022-11-20T16:21:42.751Z,100070.84
2022-11-20T16:24:18.836Z,100104.38
2022-11-20T16:26:45.884Z,100096.63
2022-11-20T16:29:22.013Z,100130.47
2022-11-20T16:31:48.787Z,100108.09
2022-11-20T16:34:17.782Z,100096.84
2022-11-20T16:36:45.230Z,100108.97
2022-11-20T16:39:12.940Z,100118.81
2022-11-20T16:41:39.959Z,100117.59
2022-11-20T16:44:08.886Z,100075.97
2022-11-20T16:46:35.940Z,100107.03
2022-11-20T16:49:04.445Z,100060.88
2022-11-20T16:51:35.912Z,100112.88
2022-11-20T16:54:04.892Z,100111.19
2022-11-20T16:56:31.870Z,100109.78
2022-11-20T16:59:00.167Z,100062.56
2022-11-20T17:01:30.645Z,100096.81
2022-11-20T17:03:59.186Z,100103.31
2022-11-20T17:06:27.977Z,100055.72
2022-11-20T17:08:58.716Z,100065.19
2022-11-20T17:11:31.549Z,100091.72
2022-11-20T17:13:59.020Z,100048.06
2022-11-20T17:16:25.835Z,100039.72
2022-11-20T17:18:58.323Z,100012.34
2022-11-20T17:21:31.611Z,100089.25
2022-11-20T17:24:02.377Z,100000.50
2022-11-20T17:26:32.395Z,100064.25
2022-11-20T17:29:03.605Z,100081.34
2022-11-20T17:31:31.797Z,100076.47
2022-11-20T17:33:59.059Z,100127.66
2022-11-20T17:36:30.996Z,100089.81
2022-11-20T17:39:02.322Z,100054.81
2022-11-20T17:41:32.118Z,100100.16
2022-11-20T17:44:04.028Z,100080.31
2022-11-20T17:46:33.753Z,100140.91
2022-11-20T17:49:02.822Z,100117.56
2022-11-20T17:51:31.635Z,100140.47
2022-11-20T17:54:03.071Z,100125.81
2022-11-20T17:56:32.836Z,100133.09
2022-11-20T17:58:59.969Z,100096.72
2022-11-20T18:01:26.707Z,100091.47
2022-11-20T18:03:53.404Z,100097.50
2022-11-20T18:06:22.728Z,100123.13
2022-11-20T18:08:50.241Z,100106.34
2022-11-20T18:11:19.724Z,100101.22
2022-11-20T18:13:55.203Z,100111.25
2022-11-20T18:16:25.537Z,100032.38
2022-11-20T18:18:54.563Z,100087.53
2022-11-20T18:21:32.227Z,100106.94
2022-11-20T18:23:58.933Z,100099.44
2022-11-20T18:26:55.268Z,100109.53
2022-11-20T18:29:26.957Z,100092.47
2022-11-20T18:31:53.853Z,100094.53
2022-11-20T18:34:22.375Z,100110.34
2022-11-20T18:37:07.747Z,100096.19
2022-11-20T18:39:34.638Z,100139.25
2022-11-20T18:42:01.603Z,100069.28
2022-11-20T18:44:31.685Z,100106.81
2022-11-20T18:46:58.398Z,100093.53
2022-11-20T18:49:34.157Z,100094.22
2022-11-20T18:52:01.165Z,100110.22
2022-11-20T18:54:29.806Z,100064.06
2022-11-20T18:56:56.608Z,100115.06
2022-11-20T18:59:36.716Z,100078.88
2022-11-20T19:02:03.406Z,100130.47
2022-11-20T19:04:30.124Z,100130.69
2022-11-20T19:07:20.858Z,100146.97
2022-11-20T19:09:51.948Z,100143.28
2022-11-20T19:12:19.353Z,100097.72
2022-11-20T19:14:47.955Z,100125.34
2022-11-20T19:17:14.769Z,100147.66
2022-11-20T19:19:43.618Z,100089.63
2022-11-20T19:22:10.464Z,100114.28
2022-11-20T19:24:46.500Z,100079.09
2022-11-20T19:27:13.148Z,100067.63
2022-11-20T19:29:39.865Z,100109.44
2022-11-20T19:32:18.273Z,100106.69
2022-11-20T19:35:05.548Z,100120.16
2022-11-20T19:37:35.112Z,100111.94
2022-11-20T19:40:02.076Z,100082.34
2022-11-20T19:42:29.975Z,100076.88
2022-11-20T19:44:56.666Z,100095.63
2022-11-20T19:48:06.148Z,100109.06
2022-11-20T19:50:21.729Z,100089.84
2022-11-20T19:52:58.720Z,100085.78
2022-11-20T19:55:25.795Z,100097.75
2022-11-20T19:57:52.684Z,100089.09
2022-11-20T20:00:49.262Z,100109.09
2022-11-20T20:03:17.606Z,100027.59
2022-11-20T20:05:48.554Z,100087.78
2022-11-20T20:08:17.077Z,100073.19
2022-11-20T20:10:44.271Z,100075.50
2022-11-20T20:13:12.034Z,100110.13
2022-11-20T20:15:39.987Z,100089.19
2022-11-20T20:18:33.914Z,100118.63
2022-11-20T20:21:03.902Z,100072.88
2022-11-20T20:23:30.989Z,100060.41
2022-11-20T20:25:59.095Z,100138.06
2022-11-20T20:28:26.006Z,100102.75
2022-11-20T20:30:54.151Z,100150.03
2022-11-20T20:33:21.228Z,100141.03
2022-11-20T20:35:49.699Z,100094.22
2022-11-20T20:38:16.336Z,100128.38
2022-11-20T20:40:47.481Z,100133.25
2022-11-20T20:43:14.144Z,100100.00
2022-11-20T20:45:48.913Z,100093.25
2022-11-20T20:48:16.624Z,100090.19
2022-11-20T20:50:55.167Z,100074.19
2022-11-20T20:53:22.937Z,100098.59
2022-11-20T20:55:56.475Z,100132.56
2022-11-20T20:58:23.192Z,100118.00
2022-11-20T21:00:50.415Z,100110.09
2022-11-20T21:03:17.095Z,100098.81
2022-11-20T21:05:44.032Z,100104.25
2022-11-20T21:08:12.832Z,100131.63
2022-11-20T21:10:39.573Z,100116.91
2022-11-20T21:13:06.227Z,100087.16
2022-11-20T21:15:32.866Z,100070.41
2022-11-20T21:17:59.483Z,100071.03
2022-11-20T21:20:26.172Z,100097.06
2022-11-20T21:22:52.829Z,100099.06
2022-11-20T21:25:21.053Z,100093.69
2022-11-20T21:27:47.885Z,100061.28
2022-11-20T21:30:14.709Z,100078.91
2022-11-20T21:32:47.725Z,100086.59
2022-11-20T21:35:14.505Z,100099.72
2022-11-20T21:37:41.303Z,100064.72
2022-11-20T21:40:09.373Z,100053.41
2022-11-20T21:42:37.626Z,100054.19
2022-11-20T21:45:05.205Z,100006.41
2022-11-20T21:47:37.091Z,100098.09
2022-11-20T21:50:04.844Z,100013.19
2022-11-20T21:52:31.882Z,100056.22
2022-11-20T21:54:58.649Z,100096.66
2022-11-20T21:57:25.500Z,100048.47
2022-11-20T21:59:53.984Z,100041.53
2022-11-20T22:02:32.975Z,100011.81
2022-11-20T22:05:00.393Z,100006.78
2022-11-20T22:07:27.361Z,100058.13
2022-11-20T22:09:54.435Z,100031.66
2022-11-20T22:12:21.397Z,100043.47
2022-11-20T22:14:48.217Z,100058.91
2022-11-20T22:17:16.788Z,100031.63
2022-11-20T22:19:43.763Z,100011.59
2022-11-20T22:22:10.641Z,100040.59
2022-11-20T22:24:37.379Z,100013.53
2022-11-20T22:27:04.129Z,100041.28
2022-11-20T22:29:31.324Z,100006.56
2022-11-20T22:32:01.165Z,100023.66
2022-11-20T22:34:29.220Z,100019.31
2022-11-20T22:36:55.986Z,100026.59
2022-11-20T22:39:22.722Z,100033.19
2022-11-20T22:41:49.371Z,100003.50
2022-11-20T22:47:39.311Z,100020.81
2022-11-20T22:50:08.257Z,100027.38
2022-11-20T22:52:34.941Z,100030.00
2022-11-20T22:55:01.607Z,100029.78
2022-11-20T22:57:28.273Z,100010.75
2022-11-20T22:59:54.898Z,99983.66
2022-11-20T23:02:21.507Z,100029.94
2022-11-20T23:04:48.112Z,100032.00
2022-11-20T23:07:16.148Z,100028.06
2022-11-20T23:09:42.778Z,100014.25
2022-11-20T23:12:09.438Z,99997.78
2022-11-20T23:14:36.052Z,100011.81
2022-11-20T23:17:02.652Z,99992.22
2022-11-20T23:19:29.251Z,100008.06
2022-11-20T23:21:55.818Z,100040.13
2022-11-20T23:24:23.959Z,100041.31
2022-11-20T23:26:50.641Z,100036.41
2022-11-20T23:29:17.368Z,100038.41
2022-11-20T23:31:44.032Z,99996.81
2022-11-20T23:34:10.699Z,100022.31
2022-11-20T23:36:37.335Z,99989.47
2022-11-20T23:39:04.166Z,100014.50
2022-11-20T23:41:32.202Z,100003.44
2022-11-20T23:43:58.834Z,100010.81
2022-11-20T23:46:25.593Z,99983.56
2022-11-20T23:48:52.316Z,99963.81
2022-11-20T23:51:19.073Z,99990.69
2022-11-20T23:53:45.667Z,100019.13
2022-11-20T23:56:12.363Z,100018.44
2022-11-20T23:58:40.546Z,100015.53
